Time;durP1;ratioP1;P1;durP2;ratioP2;P2;SDS_P1;SDS_P2;PMS_P1;PMS_P2;Temp;Humidity;BMP_temperature;BMP_pressure;BME280_temperature;BME280_humidity;BME280_pressure;Samples;Min_cycle;Max_cycle;Signal;HPM_P1;HPM_P2
2024/03/23 00:00:04;;;;;;;11.23;4.40;;;10.00;99.90;;;;;;5058154;28;20027;-89
2024/03/23 00:02:31;;;;;;;13.85;5.55;;;10.00;99.90;;;;;;5008129;28;20550;-89
2024/03/23 00:04:57;;;;;;;12.20;5.30;;;10.00;99.90;;;;;;5039993;28;20021;-90
2024/03/23 00:07:24;;;;;;;8.40;3.90;;;10.00;99.90;;;;;;5023448;28;20043;-88
2024/03/23 00:09:50;;;;;;;11.52;4.60;;;10.00;99.90;;;;;;5006795;28;20132;-89
2024/03/23 00:12:17;;;;;;;9.63;4.53;;;10.00;99.90;;;;;;5022979;28;20079;-87
2024/03/23 00:14:44;;;;;;;12.50;4.40;;;9.90;99.90;;;;;;5006676;28;20100;-89
2024/03/23 00:17:11;;;;;;;10.85;4.30;;;9.90;99.90;;;;;;5006175;28;20288;-89
2024/03/23 00:19:37;;;;;;;9.00;3.80;;;9.90;99.90;;;;;;5056356;28;20045;-89
2024/03/23 00:22:07;;;;;;;9.80;4.47;;;9.90;99.90;;;;;;5040296;28;20096;-89
2024/03/23 00:24:33;;;;;;;10.20;3.92;;;9.80;99.90;;;;;;5007981;28;20102;-89
2024/03/23 00:27:03;;;;;;;8.27;3.88;;;9.80;99.90;;;;;;5022903;28;20029;-90
2024/03/23 00:29:33;;;;;;;9.93;3.80;;;9.80;99.90;;;;;;5005903;28;20108;-88
2024/03/23 00:31:59;;;;;;;9.70;3.90;;;9.80;99.90;;;;;;5023047;28;20040;-89
2024/03/23 00:34:26;;;;;;;10.85;3.90;;;9.80;99.90;;;;;;5023556;28;20037;-88
2024/03/23 00:36:53;;;;;;;8.77;3.70;;;9.80;99.90;;;;;;5021324;28;20128;-89
2024/03/23 00:39:22;;;;;;;9.98;3.63;;;9.80;99.90;;;;;;5006391;28;20037;-88
2024/03/23 00:41:51;;;;;;;11.07;3.55;;;9.80;99.90;;;;;;5039340;28;20036;-88
2024/03/23 00:44:18;;;;;;;11.13;3.45;;;9.70;99.90;;;;;;5007624;28;20036;-89
2024/03/23 00:46:44;;;;;;;10.35;3.33;;;9.70;99.90;;;;;;5039887;28;20077;-87
2024/03/23 00:49:14;;;;;;;9.30;3.53;;;9.70;99.90;;;;;;5022849;28;20032;-88
2024/03/23 00:51:41;;;;;;;9.68;3.10;;;9.70;99.90;;;;;;5039399;28;20069;-87
2024/03/23 00:54:07;;;;;;;9.65;3.35;;;9.70;99.90;;;;;;5039291;28;20037;-89
2024/03/23 00:56:32;;;;;;;6.75;3.10;;;9.70;99.90;;;;;;5040007;28;20020;-88
2024/03/23 00:59:04;;;;;;;8.18;3.40;;;9.70;99.90;;;;;;5037356;28;20012;-89
2024/03/23 01:01:30;;;;;;;10.05;3.53;;;9.70;99.90;;;;;;5046500;28;20038;-88
2024/03/23 01:03:56;;;;;;;10.15;3.50;;;9.70;99.90;;;;;;5062880;28;20032;-87
2024/03/23 01:06:21;;;;;;;8.00;3.00;;;9.70;99.90;;;;;;5046464;28;20108;-90
2024/03/23 01:08:47;;;;;;;9.93;3.20;;;9.60;99.90;;;;;;5044064;28;20054;-87
2024/03/23 01:11:13;;;;;;;7.70;3.35;;;9.60;99.90;;;;;;5055234;28;20100;-88
2024/03/23 01:13:38;;;;;;;10.52;3.55;;;9.60;99.90;;;;;;5054038;28;20488;-87
2024/03/23 01:16:04;;;;;;;5.90;3.00;;;9.60;99.90;;;;;;5049855;28;20025;-87
2024/03/23 01:18:30;;;;;;;7.55;3.20;;;9.60;99.90;;;;;;5027340;28;20469;-88
2024/03/23 01:20:55;;;;;;;12.20;3.63;;;9.60;99.90;;;;;;5022976;28;20057;-89
2024/03/23 01:23:21;;;;;;;6.07;2.95;;;9.60;99.90;;;;;;5039234;28;20021;-88
2024/03/23 01:25:56;;;;;;;5.97;3.15;;;9.60;99.90;;;;;;5039031;28;20037;-89
2024/03/23 01:28:23;;;;;;;6.25;3.20;;;9.60;99.90;;;;;;5056558;28;20032;-87
2024/03/23 01:30:52;;;;;;;8.25;3.35;;;9.60;99.90;;;;;;5038685;28;20381;-89
2024/03/23 01:33:17;;;;;;;7.97;3.08;;;9.60;99.90;;;;;;5038626;28;20086;-89
2024/03/23 01:35:43;;;;;;;9.18;3.28;;;9.50;99.90;;;;;;5021808;28;20449;-88
2024/03/23 01:38:09;;;;;;;9.32;3.17;;;9.50;99.90;;;;;;5055983;28;20404;-90
2024/03/23 01:40:35;;;;;;;9.40;2.95;;;9.50;99.90;;;;;;5056104;28;20029;-89
2024/03/23 01:43:08;;;;;;;10.13;3.88;;;9.50;99.90;;;;;;5021625;28;20052;-90
2024/03/23 01:45:35;;;;;;;8.50;2.90;;;9.50;99.90;;;;;;5022041;28;20025;-89
2024/03/23 01:48:04;;;;;;;6.95;2.97;;;9.50;99.90;;;;;;5038173;28;20032;-88
2024/03/23 01:50:33;;;;;;;7.93;3.28;;;9.50;99.90;;;;;;5037701;28;20045;-91
2024/03/23 01:53:02;;;;;;;7.10;2.95;;;9.40;99.90;;;;;;5055608;28;20060;-90
2024/03/23 01:55:28;;;;;;;9.30;3.58;;;9.40;99.90;;;;;;5037872;28;20017;-89
2024/03/23 01:57:57;;;;;;;8.98;3.47;;;9.40;99.90;;;;;;5021851;28;20483;-91
2024/03/23 02:00:26;;;;;;;11.52;3.40;;;9.40;99.90;;;;;;5067972;28;20021;-89
2024/03/23 02:02:52;;;;;;;6.43;3.38;;;9.40;99.90;;;;;;5038286;28;20025;-91
2024/03/23 02:05:18;;;;;;;9.13;3.22;;;9.40;99.90;;;;;;5037600;28;20039;-90
2024/03/23 02:07:44;;;;;;;8.68;3.40;;;9.40;99.90;;;;;;5037326;28;20025;-92
2024/03/23 02:10:12;;;;;;;9.70;4.10;;;9.30;99.90;;;;;;5037808;28;20556;-88
2024/03/23 02:12:38;;;;;;;9.77;3.67;;;9.40;99.90;;;;;;5055287;28;20064;-92
2024/03/23 02:15:07;;;;;;;9.10;4.05;;;9.30;99.90;;;;;;5037858;28;20016;-90
2024/03/23 02:17:34;;;;;;;9.07;4.15;;;9.30;99.90;;;;;;5054960;28;20068;-90
2024/03/23 02:20:06;;;;;;;7.10;3.72;;;9.40;99.90;;;;;;5037454;28;20144;-91
2024/03/23 02:22:38;;;;;;;9.02;3.95;;;9.30;99.90;;;;;;5038157;28;20079;-90
2024/03/23 02:25:10;;;;;;;10.70;4.20;;;9.30;99.90;;;;;;5021458;28;20033;-90
2024/03/23 02:27:35;;;;;;;9.20;3.75;;;9.30;99.90;;;;;;5060980;28;20031;-90
2024/03/23 02:30:02;;;;;;;10.57;4.15;;;9.30;99.90;;;;;;5060568;28;20033;-90
2024/03/23 02:32:32;;;;;;;8.10;4.03;;;9.30;99.90;;;;;;5060276;28;20052;-90
2024/03/23 02:35:00;;;;;;;9.57;4.30;;;9.40;99.90;;;;;;5060743;28;20021;-90
2024/03/23 02:37:26;;;;;;;11.07;4.57;;;9.30;99.90;;;;;;5050906;28;20119;-91
2024/03/23 02:39:54;;;;;;;8.75;3.80;;;9.30;99.90;;;;;;5055544;28;20052;-91
2024/03/23 02:42:20;;;;;;;8.05;4.50;;;9.30;99.90;;;;;;5037326;28;20029;-92
2024/03/23 02:44:45;;;;;;;11.40;5.07;;;9.30;99.90;;;;;;5054840;28;20025;-90
2024/03/23 02:47:11;;;;;;;10.50;5.32;;;9.30;99.90;;;;;;5037087;28;20052;-91
2024/03/23 02:49:37;;;;;;;10.98;5.22;;;9.30;99.90;;;;;;5036980;28;20425;-90
2024/03/23 02:52:03;;;;;;;10.27;5.25;;;9.30;99.90;;;;;;5020941;28;20033;-91
2024/03/23 02:54:28;;;;;;;12.93;5.90;;;9.30;99.90;;;;;;5020830;28;20033;-91
2024/03/23 02:56:54;;;;;;;11.98;5.20;;;9.30;99.90;;;;;;5037039;28;20025;-91
2024/03/23 02:59:20;;;;;;;12.05;5.80;;;9.30;99.90;;;;;;5036952;28;20036;-91
2024/03/23 03:01:46;;;;;;;10.63;5.38;;;9.20;99.90;;;;;;5020424;28;20029;-92
2024/03/23 03:04:11;;;;;;;10.10;4.90;;;9.20;99.90;;;;;;5037132;28;20033;-90
2024/03/23 03:06:37;;;;;;;10.52;4.97;;;9.20;99.90;;;;;;5036691;28;20107;-91
2024/03/23 03:09:03;;;;;;;13.48;5.30;;;9.20;99.90;;;;;;5036856;28;20063;-91
2024/03/23 03:11:38;;;;;;;11.95;6.03;;;9.20;99.90;;;;;;5020329;28;20044;-90
2024/03/23 03:14:07;;;;;;;9.30;5.53;;;9.10;99.90;;;;;;5020258;28;20203;-89
2024/03/23 03:16:33;;;;;;;14.43;6.50;;;9.10;99.90;;;;;;5036594;28;20032;-90
2024/03/23 03:19:02;;;;;;;12.82;5.97;;;9.10;99.90;;;;;;5036569;28;20080;-91
2024/03/23 03:21:28;;;;;;;10.43;6.28;;;9.10;99.90;;;;;;5020912;28;20033;-90
2024/03/23 03:23:56;;;;;;;26.08;6.85;;;9.10;99.90;;;;;;5036643;28;20083;-89
2024/03/23 03:26:24;;;;;;;12.20;6.10;;;9.10;99.90;;;;;;5037150;28;20033;-90
2024/03/23 03:28:50;;;;;;;11.07;5.65;;;9.10;99.90;;;;;;5037030;28;20037;-90
2024/03/23 03:31:19;;;;;;;15.10;6.63;;;9.10;99.90;;;;;;5036269;28;20028;-89
2024/03/23 03:33:48;;;;;;;10.55;5.72;;;9.10;99.90;;;;;;5036813;28;20021;-92
2024/03/23 03:36:15;;;;;;;15.07;7.05;;;9.00;99.90;;;;;;5036976;28;20480;-92
2024/03/23 03:38:41;;;;;;;13.02;6.50;;;9.00;99.90;;;;;;5020328;28;20022;-90
2024/03/23 03:41:07;;;;;;;12.00;6.65;;;9.00;99.90;;;;;;5036839;28;20025;-89
2024/03/23 03:43:33;;;;;;;14.35;6.95;;;9.00;99.90;;;;;;5037136;28;20033;-90
2024/03/23 03:46:00;;;;;;;13.20;6.60;;;9.00;99.90;;;;;;5036511;28;20029;-92
2024/03/23 03:48:26;;;;;;;12.90;5.97;;;9.00;99.90;;;;;;5037017;28;20373;-90
2024/03/23 03:50:53;;;;;;;13.73;6.70;;;9.00;99.90;;;;;;5037140;28;20063;-89
2024/03/23 03:53:24;;;;;;;12.77;7.40;;;8.90;99.90;;;;;;5039355;28;20082;-92
2024/03/23 03:55:50;;;;;;;14.13;7.20;;;9.00;99.90;;;;;;5049361;28;20029;-90
2024/03/23 03:58:16;;;;;;;14.48;6.95;;;9.00;99.90;;;;;;5080790;28;20063;-89
2024/03/23 04:00:42;;;;;;;13.07;6.63;;;8.90;99.90;;;;;;5080412;28;20077;-89
2024/03/23 04:03:07;;;;;;;11.68;7.45;;;8.90;99.90;;;;;;5059435;28;20052;-89
2024/03/23 04:05:33;;;;;;;15.50;6.78;;;8.90;99.90;;;;;;5026306;28;20124;-91
2024/03/23 04:07:59;;;;;;;14.68;6.97;;;8.90;99.90;;;;;;5024701;28;20082;-92
2024/03/23 04:10:24;;;;;;;13.00;7.07;;;8.80;99.90;;;;;;5029476;28;20041;-89
2024/03/23 04:12:50;;;;;;;14.18;6.70;;;8.90;99.90;;;;;;5026132;28;20032;-92
2024/03/23 04:15:16;;;;;;;12.00;6.63;;;8.80;99.90;;;;;;5043656;28;20025;-89
2024/03/23 04:17:42;;;;;;;14.07;7.22;;;8.80;99.90;;;;;;5023072;28;20025;-90
2024/03/23 04:20:11;;;;;;;11.98;6.82;;;8.70;99.90;;;;;;5057597;28;20045;-90
2024/03/23 04:22:37;;;;;;;16.55;7.70;;;8.70;99.90;;;;;;5039767;28;20029;-89
2024/03/23 04:25:06;;;;;;;15.05;7.35;;;8.70;99.90;;;;;;5039627;28;20032;-91
2024/03/23 04:27:35;;;;;;;13.80;7.15;;;8.70;99.90;;;;;;5039600;28;20171;-89
2024/03/23 04:30:03;;;;;;;12.52;6.53;;;8.60;99.90;;;;;;5039741;28;20025;-91
2024/03/23 04:32:29;;;;;;;13.98;6.25;;;8.50;99.90;;;;;;5039351;28;20045;-90
2024/03/23 04:34:55;;;;;;;14.07;6.65;;;8.50;99.90;;;;;;5022312;28;20519;-90
2024/03/23 04:37:21;;;;;;;12.15;6.00;;;8.50;99.90;;;;;;5022328;28;20032;-91
2024/03/23 04:39:47;;;;;;;13.65;5.85;;;8.40;99.90;;;;;;5022946;28;20420;-90
2024/03/23 04:42:15;;;;;;;11.00;5.90;;;8.40;99.90;;;;;;5039087;28;20036;-91
2024/03/23 04:44:41;;;;;;;11.77;6.18;;;8.40;99.90;;;;;;5038956;28;20017;-89
2024/03/23 04:47:07;;;;;;;12.07;4.68;;;8.30;99.90;;;;;;5038991;28;20013;-90
2024/03/23 04:49:33;;;;;;;12.27;4.97;;;8.30;99.90;;;;;;5038897;28;20032;-91
2024/03/23 04:51:59;;;;;;;11.07;4.72;;;8.30;99.90;;;;;;5038895;28;20536;-91
2024/03/23 04:54:24;;;;;;;10.07;4.70;;;8.30;99.90;;;;;;5038882;28;20483;-92
2024/03/23 04:56:50;;;;;;;10.27;4.85;;;8.20;99.90;;;;;;5038931;28;20017;-89
2024/03/23 04:59:19;;;;;;;9.18;4.60;;;8.20;99.90;;;;;;5022324;28;20420;-89
2024/03/23 05:01:45;;;;;;;11.23;4.70;;;8.20;99.90;;;;;;5038792;28;20504;-90
2024/03/23 05:04:11;;;;;;;9.20;5.03;;;8.10;99.90;;;;;;5038884;28;20021;-91
2024/03/23 05:06:46;;;;;;;12.65;4.22;;;8.10;99.90;;;;;;5038022;28;20021;-91
2024/03/23 05:09:11;;;;;;;11.70;4.70;;;8.00;99.90;;;;;;5056273;28;20021;-91
2024/03/23 05:11:44;;;;;;;7.72;3.90;;;8.00;99.90;;;;;;5021895;28;20044;-90
2024/03/23 05:14:14;;;;;;;12.05;4.53;;;7.90;99.90;;;;;;5038758;28;20506;-89
2024/03/23 05:16:40;;;;;;;12.45;4.20;;;7.90;99.90;;;;;;5038625;28;20482;-89
2024/03/23 05:19:11;;;;;;;9.75;3.80;;;7.90;99.90;;;;;;5038725;28;20068;-91
2024/03/23 05:22:07;;;;;;;;;;;;;;;;;;;;;
2024/03/23 05:24:33;;;;;;;7.50;3.42;;;7.90;99.90;;;;;;5054531;28;20036;-87
2024/03/23 05:26:59;;;;;;;12.02;4.10;;;7.90;99.90;;;;;;5061005;28;20393;-90
2024/03/23 05:29:25;;;;;;;8.10;3.80;;;7.90;99.90;;;;;;5060636;28;20004;-90
2024/03/23 05:31:52;;;;;;;10.38;3.63;;;7.90;99.90;;;;;;5061522;28;20025;-89
2024/03/23 05:34:18;;;;;;;9.98;3.83;;;7.90;99.90;;;;;;5044246;28;20025;-90
2024/03/23 05:36:45;;;;;;;8.55;3.38;;;7.90;99.90;;;;;;5038453;28;20025;-90
2024/03/23 05:39:11;;;;;;;10.20;3.80;;;7.90;99.90;;;;;;5038136;28;20021;-89
2024/03/23 05:41:37;;;;;;;12.38;3.80;;;7.90;99.90;;;;;;5037792;28;20021;-90
2024/03/23 05:44:03;;;;;;;7.05;3.78;;;7.90;99.90;;;;;;5038090;28;20071;-89
2024/03/23 05:46:29;;;;;;;9.27;4.22;;;7.90;99.90;;;;;;5038332;28;20088;-92
2024/03/23 05:49:01;;;;;;;12.13;4.13;;;7.80;99.90;;;;;;5037815;28;20035;-90
2024/03/23 05:51:27;;;;;;;7.80;3.95;;;7.80;99.90;;;;;;5037887;28;20037;-89
2024/03/23 05:53:53;;;;;;;9.52;3.85;;;7.80;99.90;;;;;;5037620;28;20086;-92
2024/03/23 05:56:20;;;;;;;12.13;3.95;;;7.80;99.90;;;;;;5021129;28;20031;-90
2024/03/23 05:58:46;;;;;;;9.82;3.60;;;7.80;99.90;;;;;;5037580;28;20083;-90
2024/03/23 06:01:12;;;;;;;9.38;3.83;;;7.80;99.90;;;;;;5037422;28;20476;-92
2024/03/23 06:03:38;;;;;;;11.20;4.00;;;7.80;99.90;;;;;;5021282;28;20032;-91
2024/03/23 06:06:04;;;;;;;9.75;3.65;;;7.70;99.90;;;;;;5037740;28;20101;-89
2024/03/23 06:08:33;;;;;;;8.43;3.60;;;7.80;99.90;;;;;;5021275;28;20021;-89
2024/03/23 06:10:58;;;;;;;9.25;3.58;;;7.70;99.90;;;;;;5055053;28;20071;-90
2024/03/23 06:13:29;;;;;;;9.00;3.38;;;7.70;99.90;;;;;;5037645;28;20385;-89
2024/03/23 06:15:56;;;;;;;6.80;2.72;;;7.70;99.90;;;;;;5037479;28;20024;-90
2024/03/23 06:18:21;;;;;;;8.32;3.70;;;7.70;99.90;;;;;;5036578;28;20496;-89
2024/03/23 06:20:47;;;;;;;9.00;3.30;;;7.60;99.90;;;;;;5037133;28;20079;-90
2024/03/23 06:23:14;;;;;;;13.13;3.60;;;7.60;99.90;;;;;;5037515;28;20025;-89
2024/03/23 06:25:40;;;;;;;7.82;3.20;;;7.70;99.90;;;;;;5048286;28;20032;-89
2024/03/23 06:28:06;;;;;;;9.63;3.42;;;7.70;99.90;;;;;;5043049;28;20040;-91
2024/03/23 06:30:32;;;;;;;10.60;3.15;;;7.70;99.90;;;;;;5037522;28;20033;-89
2024/03/23 06:32:57;;;;;;;8.15;2.72;;;7.70;99.90;;;;;;5020412;28;20029;-92
2024/03/23 06:35:23;;;;;;;7.00;2.67;;;7.70;99.90;;;;;;5037114;28;20021;-89
2024/03/23 06:37:49;;;;;;;6.85;2.70;;;7.80;99.90;;;;;;5036793;28;20021;-89
2024/03/23 06:40:15;;;;;;;7.07;2.70;;;7.80;99.90;;;;;;5054722;28;20025;-89
2024/03/23 06:42:41;;;;;;;6.78;3.47;;;7.80;99.90;;;;;;5037217;28;20071;-88
2024/03/23 06:45:07;;;;;;;8.23;3.03;;;7.90;99.90;;;;;;5037057;28;20120;-91
2024/03/23 06:47:33;;;;;;;6.72;2.80;;;7.90;99.90;;;;;;5021008;28;20115;-89
2024/03/23 06:50:03;;;;;;;7.88;3.17;;;8.00;99.90;;;;;;5058278;28;20480;-87
2024/03/23 06:52:34;;;;;;;8.93;3.13;;;7.90;99.90;;;;;;5060445;28;20020;-89
2024/03/23 06:55:00;;;;;;;9.75;3.13;;;8.00;99.90;;;;;;5077752;28;20029;-90
2024/03/23 06:57:26;;;;;;;6.18;2.63;;;8.00;99.90;;;;;;5060718;28;20020;-91
2024/03/23 06:59:52;;;;;;;12.43;3.00;;;8.00;99.90;;;;;;5047361;28;20025;-89
2024/03/23 07:02:17;;;;;;;11.23;2.88;;;8.00;99.90;;;;;;5020905;28;20029;-89
2024/03/23 07:04:43;;;;;;;9.23;3.10;;;8.00;99.90;;;;;;5020214;28;20067;-87
2024/03/23 07:07:09;;;;;;;8.93;3.00;;;8.10;99.90;;;;;;5020666;28;20029;-90
2024/03/23 07:09:35;;;;;;;9.20;3.13;;;8.10;99.90;;;;;;5020331;28;20052;-90
2024/03/23 07:12:00;;;;;;;10.35;3.33;;;8.10;99.90;;;;;;5036476;28;20028;-89
2024/03/23 07:14:26;;;;;;;6.82;2.92;;;8.10;99.90;;;;;;5035419;28;20025;-90
2024/03/23 07:16:52;;;;;;;7.07;2.78;;;8.10;99.90;;;;;;5035891;28;20415;-89
2024/03/23 07:19:18;;;;;;;9.40;2.90;;;8.20;99.90;;;;;;5020552;28;20048;-88
2024/03/23 07:21:45;;;;;;;12.52;3.08;;;8.20;99.90;;;;;;5055820;28;20032;-90
2024/03/23 07:24:11;;;;;;;11.68;3.17;;;8.20;99.90;;;;;;5035878;28;20029;-89
2024/03/23 07:26:37;;;;;;;10.50;3.33;;;8.20;99.90;;;;;;5019297;28;20033;-90
2024/03/23 07:29:04;;;;;;;7.90;2.60;;;8.10;99.90;;;;;;5037955;28;20031;-89
2024/03/23 07:31:33;;;;;;;9.27;3.38;;;8.20;99.90;;;;;;5040598;28;20459;-90
2024/03/23 07:33:58;;;;;;;8.75;3.25;;;8.30;99.90;;;;;;5040586;28;20021;-89
2024/03/23 07:36:24;;;;;;;12.05;3.25;;;8.20;99.90;;;;;;5040322;28;20029;-90
2024/03/23 07:38:50;;;;;;;7.68;2.60;;;8.20;99.90;;;;;;5040071;28;20031;-90
2024/03/23 07:41:18;;;;;;;8.15;2.50;;;8.20;99.90;;;;;;5040500;28;20035;-90
2024/03/23 07:43:44;;;;;;;9.23;3.08;;;8.20;99.90;;;;;;5040320;28;20029;-89
2024/03/23 07:46:11;;;;;;;12.10;2.90;;;8.30;99.90;;;;;;5039911;28;20441;-88
2024/03/23 07:48:38;;;;;;;10.32;2.97;;;8.30;99.90;;;;;;5024001;28;20021;-89
2024/03/23 07:51:11;;;;;;;6.65;3.05;;;8.30;99.90;;;;;;5040431;28;20037;-89
2024/03/23 07:53:37;;;;;;;9.57;3.15;;;8.40;99.90;;;;;;5040227;28;20070;-90
2024/03/23 07:56:06;;;;;;;9.48;2.90;;;8.40;99.90;;;;;;5039984;28;20021;-89
2024/03/23 07:58:36;;;;;;;7.45;2.60;;;8.40;99.90;;;;;;5040557;28;20017;-91
2024/03/23 08:01:12;;;;;;;8.90;3.22;;;8.40;99.90;;;;;;5041322;28;20036;-92
2024/03/23 08:03:39;;;;;;;10.80;3.20;;;8.50;99.90;;;;;;5041339;28;20021;-92
2024/03/23 08:06:10;;;;;;;11.70;2.97;;;8.50;99.90;;;;;;5040692;28;20039;-92
2024/03/23 08:08:39;;;;;;;7.00;2.90;;;8.50;99.90;;;;;;5041722;28;20025;-93
2024/03/23 08:11:05;;;;;;;9.48;2.60;;;8.50;99.90;;;;;;5041831;28;20033;-92
2024/03/23 08:13:37;;;;;;;11.88;3.20;;;8.60;99.90;;;;;;5042971;28;20029;-92
2024/03/23 08:16:04;;;;;;;10.60;2.72;;;8.70;99.90;;;;;;5041399;28;20028;-93
2024/03/23 08:18:31;;;;;;;11.02;2.80;;;8.80;99.90;;;;;;5039107;28;20013;-92
2024/03/23 08:21:07;;;;;;;8.60;2.40;;;8.90;99.90;;;;;;5062333;28;20033;-91
2024/03/23 08:23:36;;;;;;;14.38;3.40;;;8.90;99.90;;;;;;5062747;28;20017;-93
2024/03/23 08:26:08;;;;;;;11.27;3.00;;;8.90;99.90;;;;;;5058353;28;20048;-93
2024/03/23 08:28:47;;;;;;;12.02;2.97;;;9.00;99.90;;;;;;5066751;28;20381;-92
2024/03/23 08:31:16;;;;;;;9.48;3.00;;;9.00;99.90;;;;;;5041453;28;20033;-94
2024/03/23 08:33:43;;;;;;;10.68;2.78;;;9.00;99.90;;;;;;5042961;28;20025;-93
2024/03/23 08:36:12;;;;;;;9.23;3.00;;;9.10;99.90;;;;;;5049345;28;20028;-92
2024/03/23 08:38:41;;;;;;;10.35;2.85;;;9.10;99.90;;;;;;5030289;28;20055;-92
2024/03/23 08:41:13;;;;;;;8.82;2.60;;;9.10;99.90;;;;;;5054368;28;20029;-92
2024/03/23 08:43:48;;;;;;;7.57;2.38;;;9.20;99.90;;;;;;5121363;22;20060;-92
2024/03/23 08:46:16;;;;;;;6.72;2.10;;;9.20;99.90;;;;;;5073376;28;20040;-93
2024/03/23 08:51:27;;;;;;;8.88;2.80;;;9.30;99.90;;;;;;5353933;22;20056;-93
2024/03/23 08:54:06;;;;;;;7.65;1.98;;;9.40;99.90;;;;;;5103320;28;20062;-94
2024/03/23 08:56:36;;;;;;;12.20;2.22;;;9.40;99.90;;;;;;5103413;28;20043;-92
2024/03/23 08:59:05;;;;;;;8.10;2.10;;;9.40;99.90;;;;;;5119413;28;20024;-95
2024/03/23 09:01:37;;;;;;;6.60;1.95;;;9.50;99.90;;;;;;5198450;22;20082;-91
2024/03/23 09:06:53;;;;;;;8.15;2.30;;;9.60;99.90;;;;;;5130355;22;20152;-93
2024/03/23 09:09:27;;;;;;;10.93;2.08;;;9.70;99.90;;;;;;5358683;22;20063;-89
2024/03/23 09:11:52;;;;;;;6.55;1.80;;;9.70;99.90;;;;;;5112285;28;20038;-93
2024/03/23 09:14:19;;;;;;;8.68;1.98;;;9.80;99.90;;;;;;5105232;28;20028;-93
2024/03/23 09:16:44;;;;;;;5.97;1.88;;;9.90;99.90;;;;;;5097172;28;20027;-92
2024/03/23 09:19:17;;;;;;;6.53;2.00;;;9.90;99.90;;;;;;5116889;28;20071;-93
2024/03/23 09:24:50;;;;;;;;;;;;;;;;;;;;;
2024/03/23 09:27:16;;;;;;;8.63;1.63;;;10.10;99.90;;;;;;5090897;28;20060;-93
2024/03/23 09:29:51;;;;;;;4.03;1.15;;;10.00;99.90;;;;;;5088838;28;20418;-94
2024/03/23 09:32:17;;;;;;;2.65;1.10;;;10.00;99.90;;;;;;5094287;28;20016;-93
2024/03/23 09:34:47;;;;;;;6.05;1.20;;;10.00;99.90;;;;;;5088679;28;20055;-93
2024/03/23 09:37:18;;;;;;;6.20;1.43;;;9.90;99.90;;;;;;5058992;28;20028;-93
2024/03/23 09:40:00;;;;;;;4.63;1.30;;;9.90;99.90;;;;;;5090405;28;20059;-93
2024/03/23 09:42:25;;;;;;;7.07;1.75;;;9.90;99.90;;;;;;5091389;28;20032;-92
2024/03/23 09:44:52;;;;;;;4.75;1.45;;;9.90;99.90;;;;;;5066577;28;20080;-92
2024/03/23 09:47:18;;;;;;;4.05;1.17;;;9.80;99.90;;;;;;5094420;28;20024;-92
2024/03/23 09:49:46;;;;;;;6.10;1.67;;;9.70;99.90;;;;;;5149970;22;20107;-92
2024/03/23 09:52:12;;;;;;;6.40;1.70;;;9.60;99.90;;;;;;5105196;28;20061;-90
2024/03/23 09:54:38;;;;;;;6.38;1.33;;;9.60;99.90;;;;;;5119112;28;20046;-93
2024/03/23 09:57:05;;;;;;;6.80;1.27;;;9.60;99.90;;;;;;5103300;28;20020;-88
2024/03/23 09:59:34;;;;;;;5.57;1.70;;;9.70;99.90;;;;;;5082191;28;20429;-92
2024/03/23 10:02:22;;;;;;;4.95;1.70;;;9.70;99.90;;;;;;5098738;28;20026;-91
2024/03/23 10:04:48;;;;;;;6.85;1.70;;;9.80;99.90;;;;;;5125155;28;20053;-93
2024/03/23 10:07:22;;;;;;;6.75;1.90;;;9.90;99.90;;;;;;5104992;28;20015;-93
2024/03/23 10:09:57;;;;;;;5.55;1.23;;;10.00;99.90;;;;;;5125152;28;20081;-92
2024/03/23 10:12:30;;;;;;;6.15;1.60;;;10.10;99.90;;;;;;5108734;28;20125;-93
2024/03/23 10:14:58;;;;;;;3.63;1.40;;;10.30;99.90;;;;;;5099743;28;20035;-93
2024/03/23 10:17:24;;;;;;;7.55;2.17;;;10.40;99.90;;;;;;5097678;28;20076;-91
2024/03/23 10:19:56;;;;;;;4.53;1.67;;;10.60;99.90;;;;;;5098454;28;20023;-92
2024/03/23 10:22:24;;;;;;;5.72;1.95;;;10.70;99.90;;;;;;5099666;28;20470;-92
2024/03/23 10:24:50;;;;;;;4.43;1.92;;;10.70;99.90;;;;;;5098594;28;20030;-92
2024/03/23 10:27:20;;;;;;;7.18;1.98;;;10.70;99.90;;;;;;5064512;28;20027;-92
2024/03/23 10:30:07;;;;;;;7.10;1.88;;;10.50;99.90;;;;;;5099468;28;20030;-92
2024/03/23 10:32:35;;;;;;;6.32;1.50;;;10.50;99.90;;;;;;5123851;28;20059;-93
2024/03/23 10:35:18;;;;;;;4.88;1.40;;;10.50;99.90;;;;;;5118021;28;20042;-92
2024/03/23 10:37:51;;;;;;;5.20;1.63;;;10.40;99.90;;;;;;5082038;28;20019;-94
2024/03/23 10:40:18;;;;;;;4.70;1.60;;;10.30;99.90;;;;;;5098373;28;20195;-91
2024/03/23 10:42:44;;;;;;;4.50;1.65;;;10.30;99.90;;;;;;5098626;28;20445;-93
2024/03/23 10:45:14;;;;;;;6.28;1.88;;;10.30;99.90;;;;;;5100462;28;20028;-92
2024/03/23 10:47:47;;;;;;;5.40;1.92;;;10.40;99.90;;;;;;5103617;28;20023;-92
2024/03/23 10:50:13;;;;;;;5.82;1.80;;;10.40;99.90;;;;;;5097283;28;20437;-93
2024/03/23 10:52:41;;;;;;;7.07;1.80;;;10.40;99.90;;;;;;5095483;28;20036;-94
2024/03/23 10:55:09;;;;;;;4.28;1.80;;;10.40;99.90;;;;;;5081604;28;20028;-92
2024/03/23 10:57:40;;;;;;;8.15;2.08;;;10.50;99.90;;;;;;5096054;28;20487;-92
2024/03/23 11:00:06;;;;;;;;;;;10.60;99.90;;;;;;5094552;28;20024;-93
2024/03/23 11:02:32;;;;;;;6.50;1.92;;;10.70;99.90;;;;;;5094117;28;19961;-93
2024/03/23 11:04:57;;;;;;;6.20;2.08;;;10.70;99.90;;;;;;5066860;28;20032;-88
2024/03/23 11:07:26;;;;;;;11.23;2.55;;;10.80;99.90;;;;;;5100264;28;20028;-93
2024/03/23 11:09:53;;;;;;;6.97;1.65;;;11.00;99.90;;;;;;5098570;28;20055;-92
2024/03/23 11:12:22;;;;;;;4.10;1.88;;;11.00;99.90;;;;;;5086555;28;20035;-91
2024/03/23 11:14:50;;;;;;;7.70;1.90;;;11.10;99.90;;;;;;5101983;28;20032;-91
2024/03/23 11:17:20;;;;;;;6.05;1.70;;;11.10;99.90;;;;;;5112322;28;20015;-84
2024/03/23 11:19:53;;;;;;;9.55;2.25;;;11.10;99.90;;;;;;5121228;28;20040;-92
2024/03/23 11:22:38;;;;;;;5.93;1.73;;;11.00;99.90;;;;;;5118176;28;20038;-91
2024/03/23 11:25:16;;;;;;;7.40;1.90;;;10.90;99.90;;;;;;5113081;28;20024;-93
2024/03/23 11:27:46;;;;;;;5.07;1.73;;;10.70;99.90;;;;;;5100158;28;20024;-90
2024/03/23 11:31:14;;;;;;;;;;;;;;;;;;;;;
2024/03/23 11:33:42;;;;;;;6.90;2.03;;;10.60;99.70;;;;;;5100897;28;20039;-92
2024/03/23 11:36:10;;;;;;;5.45;1.90;;;10.60;99.70;;;;;;5098374;28;20032;-92
2024/03/23 11:38:45;;;;;;;6.68;1.60;;;10.60;99.80;;;;;;5082753;28;20054;-93
2024/03/23 11:41:13;;;;;;;6.72;1.73;;;10.60;99.50;;;;;;5100388;28;20043;-92
2024/03/23 11:43:39;;;;;;;4.10;1.60;;;10.60;99.20;;;;;;5101078;28;20024;-93
2024/03/23 11:46:05;;;;;;;5.18;1.90;;;10.70;98.90;;;;;;5083816;28;20093;-92
2024/03/23 11:48:33;;;;;;;5.78;1.42;;;10.70;98.80;;;;;;5102912;28;20029;-92
2024/03/23 11:51:00;;;;;;;4.40;1.40;;;10.70;98.50;;;;;;5090084;28;20052;-93
2024/03/23 11:53:30;;;;;;;5.78;1.45;;;10.60;98.50;;;;;;5097945;28;20024;-90
2024/03/23 11:56:02;;;;;;;5.88;1.77;;;10.50;98.60;;;;;;5097623;28;20016;-92
2024/03/23 11:58:30;;;;;;;6.05;1.50;;;10.50;98.60;;;;;;5097635;28;20012;-93
2024/03/23 12:01:05;;;;;;;5.63;1.30;;;10.50;98.70;;;;;;5082269;28;20024;-93
2024/03/23 12:03:34;;;;;;;4.97;1.73;;;10.40;98.50;;;;;;5100345;28;20024;-94
2024/03/23 12:06:01;;;;;;;6.53;1.30;;;10.30;98.90;;;;;;5099147;28;20016;-93
2024/03/23 12:08:33;;;;;;;4.70;1.52;;;10.20;99.20;;;;;;5099921;28;20039;-91
2024/03/23 12:11:14;;;;;;;3.60;1.30;;;10.20;99.50;;;;;;5101296;28;20054;-92
2024/03/23 12:13:44;;;;;;;9.60;2.00;;;10.20;99.60;;;;;;5101879;28;20052;-94
2024/03/23 12:16:16;;;;;;;5.72;1.45;;;10.20;99.60;;;;;;5098655;28;20039;-92
2024/03/23 12:18:42;;;;;;;4.07;1.20;;;10.10;99.50;;;;;;5097293;28;20036;-92
2024/03/23 12:21:12;;;;;;;4.38;1.45;;;10.10;99.60;;;;;;5098716;28;20063;-93
2024/03/23 12:23:50;;;;;;;4.65;1.40;;;10.10;99.90;;;;;;5100070;28;20027;-87
2024/03/23 12:26:17;;;;;;;5.68;1.63;;;9.90;99.70;;;;;;5097987;28;20027;-93
2024/03/23 12:28:45;;;;;;;5.18;1.70;;;9.90;99.90;;;;;;5101437;28;20020;-94
2024/03/23 12:31:13;;;;;;;9.25;1.98;;;9.90;99.90;;;;;;5099114;28;20046;-94
2024/03/23 12:33:42;;;;;;;4.05;1.50;;;10.00;99.90;;;;;;5098040;28;20085;-90
2024/03/23 12:36:08;;;;;;;8.40;1.88;;;10.00;99.90;;;;;;5081358;28;20044;-93
2024/03/23 12:38:33;;;;;;;5.25;1.90;;;10.10;99.90;;;;;;5147473;22;20071;-92
2024/03/23 12:41:05;;;;;;;6.75;1.48;;;10.20;99.90;;;;;;5056866;28;20100;-92
2024/03/23 12:43:33;;;;;;;;;;;10.20;99.90;;;;;;5062709;28;20025;-92
2024/03/23 12:46:01;;;;;;;8.65;2.10;;;10.10;99.90;;;;;;5062798;28;19964;-94
2024/03/23 12:48:27;;;;;;;6.60;2.10;;;10.20;99.90;;;;;;5062748;28;20077;-88
2024/03/23 12:50:55;;;;;;;7.72;1.92;;;10.30;99.90;;;;;;5061743;28;20025;-93
2024/03/23 12:53:21;;;;;;;7.32;1.83;;;10.30;99.90;;;;;;5079556;28;20009;-93
2024/03/23 12:55:48;;;;;;;8.45;2.22;;;10.50;99.90;;;;;;5058645;28;20026;-92
2024/03/23 12:58:13;;;;;;;9.75;1.70;;;10.60;99.80;;;;;;5041056;28;20547;-92
2024/03/23 13:00:39;;;;;;;6.53;1.80;;;10.80;99.70;;;;;;5039489;28;20033;-91
2024/03/23 13:03:05;;;;;;;5.45;1.50;;;10.90;99.40;;;;;;5039302;28;20029;-92
2024/03/23 13:05:33;;;;;;;7.53;2.10;;;11.00;99.00;;;;;;5038874;28;20120;-91
2024/03/23 13:08:02;;;;;;;3.80;1.35;;;11.00;98.80;;;;;;5042408;28;20033;-92